Time;durP1;ratioP1;P1;durP2;ratioP2;P2;SDS_P1;SDS_P2;PMS_P1;PMS_P2;Temp;Humidity;BMP_temperature;BMP_pressure;BME280_temperature;BME280_humidity;BME280_pressure;Samples;Min_cycle;Max_cycle;Signal;HPM_P1;HPM_P2
2023/07/05 00:01:13;;;;;;;13.77;4.70;;;20.60;99.90;;;;;;5036686;28;20025;-68
2023/07/05 00:03:39;;;;;;;7.15;4.13;;;20.60;99.90;;;;;;5036568;28;20025;-68
2023/07/05 00:06:05;;;;;;;9.55;4.57;;;20.70;99.90;;;;;;5035710;28;20025;-68
2023/07/05 00:08:33;;;;;;;6.40;4.20;;;20.80;99.90;;;;;;5035785;28;20040;-67
2023/07/05 00:11:06;;;;;;;7.15;4.22;;;20.80;99.90;;;;;;5036501;28;20026;-68
2023/07/05 00:13:31;;;;;;;9.73;3.92;;;21.00;99.90;;;;;;5035734;28;20030;-68
2023/07/05 00:15:57;;;;;;;8.52;4.57;;;21.10;99.90;;;;;;5035625;28;20018;-67
2023/07/05 00:18:22;;;;;;;10.18;4.10;;;21.20;99.90;;;;;;5036987;28;20045;-68
2023/07/05 00:20:48;;;;;;;9.23;4.47;;;21.20;99.90;;;;;;5038803;28;20041;-68
2023/07/05 00:23:13;;;;;;;9.75;4.53;;;21.20;99.90;;;;;;5040041;28;20021;-68
2023/07/05 00:25:39;;;;;;;8.60;4.13;;;21.10;99.90;;;;;;5039534;28;20037;-68
2023/07/05 00:28:04;;;;;;;10.90;4.88;;;21.10;99.90;;;;;;5039952;28;20017;-68
2023/07/05 00:30:30;;;;;;;11.65;4.68;;;21.00;99.90;;;;;;5039112;28;20040;-68
2023/07/05 00:32:55;;;;;;;11.32;4.95;;;21.00;99.90;;;;;;5039294;28;20030;-68
2023/07/05 00:35:21;;;;;;;9.88;5.72;;;20.90;99.90;;;;;;5039191;28;20104;-68
2023/07/05 00:37:46;;;;;;;7.25;3.80;;;20.90;99.90;;;;;;5039946;28;20029;-68
2023/07/05 00:40:12;;;;;;;7.95;4.38;;;20.80;99.90;;;;;;5039214;28;20026;-68
2023/07/05 00:42:38;;;;;;;9.20;4.65;;;20.80;99.90;;;;;;5039900;28;20036;-68
2023/07/05 00:45:10;;;;;;;7.38;4.28;;;20.70;99.90;;;;;;5039114;28;20029;-68
2023/07/05 00:47:37;;;;;;;8.80;4.18;;;20.70;99.90;;;;;;5038871;28;20048;-67
2023/07/05 00:50:20;;;;;;;7.70;4.35;;;20.50;99.90;;;;;;5038909;28;20037;-68
2023/07/05 00:52:46;;;;;;;9.13;4.57;;;20.30;99.90;;;;;;5038714;28;20018;-68
2023/07/05 00:55:13;;;;;;;10.05;4.75;;;20.20;99.90;;;;;;5038770;28;20109;-67
2023/07/05 00:57:39;;;;;;;7.45;4.60;;;20.20;99.90;;;;;;5038885;28;20026;-67
2023/07/05 01:00:14;;;;;;;7.30;4.20;;;20.10;99.90;;;;;;5038641;28;20030;-67
2023/07/05 01:02:43;;;;;;;10.18;3.30;;;20.00;99.90;;;;;;5038981;28;20049;-68
2023/07/05 01:05:11;;;;;;;7.25;3.85;;;19.90;99.90;;;;;;5038584;28;20030;-67
2023/07/05 01:07:37;;;;;;;8.63;3.83;;;19.90;99.90;;;;;;5039721;28;20051;-67
2023/07/05 01:10:17;;;;;;;5.53;3.10;;;19.90;99.90;;;;;;5038800;28;20060;-67
2023/07/05 01:13:29;;;;;;;6.60;3.50;;;19.60;99.90;;;;;;5038654;28;20025;-68
2023/07/05 01:16:14;;;;;;;3.85;2.80;;;19.50;99.90;;;;;;4962964;28;20030;-67
2023/07/05 01:18:50;;;;;;;6.82;3.28;;;19.40;99.90;;;;;;4962702;28;20143;-67
2023/07/05 01:21:49;;;;;;;4.53;3.00;;;19.40;99.90;;;;;;4979245;28;20039;-67
2023/07/05 01:24:52;;;;;;;5.38;2.97;;;19.50;99.90;;;;;;4962469;28;20121;-68
2023/07/05 01:27:36;;;;;;;5.90;3.22;;;19.50;99.90;;;;;;4962549;28;20118;-67
2023/07/05 01:30:10;;;;;;;7.25;3.10;;;19.60;99.90;;;;;;4962491;28;20030;-67
2023/07/05 01:33:02;;;;;;;9.25;3.10;;;19.50;99.90;;;;;;4961996;28;20054;-67
2023/07/05 01:35:37;;;;;;;4.18;2.75;;;19.60;99.90;;;;;;4962323;28;20023;-67
2023/07/05 01:38:06;;;;;;;7.70;2.75;;;19.50;99.90;;;;;;4962555;28;20138;-67
2023/07/05 01:40:31;;;;;;;8.57;4.13;;;19.40;99.90;;;;;;4962382;28;20051;-67
2023/07/05 01:43:09;;;;;;;8.23;3.72;;;19.60;99.90;;;;;;4962201;28;20027;-68
2023/07/05 01:45:49;;;;;;;6.20;2.83;;;19.50;99.90;;;;;;4965552;28;20035;-67
2023/07/05 01:48:25;;;;;;;6.43;3.17;;;19.40;99.90;;;;;;5037763;28;20036;-67
2023/07/05 01:51:13;;;;;;;5.30;2.90;;;19.40;99.90;;;;;;5037768;28;20036;-67
2023/07/05 01:53:58;;;;;;;8.65;3.20;;;19.40;99.90;;;;;;5038337;28;20040;-67
2023/07/05 01:56:31;;;;;;;7.25;3.42;;;19.10;99.90;;;;;;5038371;28;20018;-67
2023/07/05 01:58:58;;;;;;;3.70;2.50;;;19.20;99.90;;;;;;5038783;28;20049;-67
2023/07/05 02:01:27;;;;;;;4.63;2.60;;;19.20;99.90;;;;;;5037967;28;20029;-67
2023/07/05 02:03:53;;;;;;;5.50;2.95;;;19.30;99.90;;;;;;5037667;28;20036;-67
2023/07/05 02:06:20;;;;;;;8.02;2.75;;;19.30;99.90;;;;;;5038554;28;20022;-67
2023/07/05 02:08:50;;;;;;;3.15;2.33;;;19.40;99.90;;;;;;5037363;28;20045;-67
2023/07/05 02:11:16;;;;;;;4.00;2.55;;;19.40;99.90;;;;;;5038776;28;20017;-67
2023/07/05 02:13:41;;;;;;;5.43;2.50;;;19.50;99.90;;;;;;5037578;28;20056;-67
2023/07/05 02:16:07;;;;;;;6.28;2.92;;;19.60;99.90;;;;;;5037374;28;20017;-67
2023/07/05 02:18:33;;;;;;;4.82;1.98;;;19.50;99.90;;;;;;5037533;28;20025;-67
2023/07/05 02:20:58;;;;;;;4.20;2.20;;;19.50;99.90;;;;;;5037166;28;20030;-67
2023/07/05 02:23:24;;;;;;;3.67;2.20;;;19.20;99.90;;;;;;5037418;28;20109;-67
2023/07/05 02:25:58;;;;;;;8.80;2.30;;;18.90;99.90;;;;;;5037362;28;20078;-67
2023/07/05 02:28:23;;;;;;;4.05;2.38;;;18.80;99.90;;;;;;5037907;28;20030;-67
2023/07/05 02:30:49;;;;;;;8.13;2.33;;;18.60;99.90;;;;;;5037756;28;20083;-67
2023/07/05 02:33:14;;;;;;;2.63;1.92;;;18.60;99.90;;;;;;5037349;28;20051;-66
2023/07/05 02:35:40;;;;;;;6.55;2.00;;;18.50;99.90;;;;;;5036857;28;20018;-67
2023/07/05 02:38:06;;;;;;;3.58;2.25;;;18.50;99.90;;;;;;5037825;28;20069;-67
2023/07/05 02:40:32;;;;;;;3.97;2.00;;;18.60;99.90;;;;;;5036645;28;20146;-67
2023/07/05 02:42:59;;;;;;;2.25;1.77;;;18.80;99.90;;;;;;5036214;28;20036;-67
2023/07/05 02:45:26;;;;;;;3.63;1.67;;;18.80;99.90;;;;;;5036966;28;20163;-67
2023/07/05 02:47:51;;;;;;;4.32;1.83;;;18.70;99.90;;;;;;5037964;28;20112;-67
2023/07/05 02:50:17;;;;;;;3.40;1.60;;;18.80;99.90;;;;;;5037214;28;20116;-67
2023/07/05 02:52:43;;;;;;;3.90;1.48;;;18.90;99.90;;;;;;5036546;28;20029;-67
2023/07/05 02:55:09;;;;;;;2.85;1.80;;;18.90;99.90;;;;;;5037631;28;20024;-67
2023/07/05 02:57:35;;;;;;;2.45;1.17;;;18.90;99.90;;;;;;5036858;28;20025;-67
2023/07/05 03:00:01;;;;;;;5.28;1.63;;;18.90;99.90;;;;;;5036445;28;20034;-67
2023/07/05 03:02:26;;;;;;;5.35;1.90;;;18.90;99.90;;;;;;5036547;28;20033;-66
2023/07/05 03:04:53;;;;;;;3.80;1.60;;;18.90;99.90;;;;;;5036635;28;20021;-67
2023/07/05 03:07:19;;;;;;;4.10;1.70;;;18.90;99.90;;;;;;5037322;28;20029;-67
2023/07/05 03:09:48;;;;;;;6.63;1.90;;;18.90;99.90;;;;;;5036166;28;20029;-67
2023/07/05 03:12:14;;;;;;;7.22;2.17;;;18.90;99.90;;;;;;5037437;28;20021;-67
2023/07/05 03:14:40;;;;;;;5.85;2.05;;;18.90;99.90;;;;;;5037224;28;20032;-67
2023/07/05 03:17:05;;;;;;;3.53;1.30;;;18.90;99.90;;;;;;5036542;28;20025;-67
2023/07/05 03:19:31;;;;;;;3.20;1.75;;;18.90;99.90;;;;;;5036183;28;20036;-67
2023/07/05 03:21:56;;;;;;;2.25;1.38;;;19.00;99.90;;;;;;5036518;28;20033;-67
2023/07/05 03:24:22;;;;;;;5.78;1.90;;;18.90;99.90;;;;;;5037493;28;20081;-67
2023/07/05 03:26:51;;;;;;;3.40;2.03;;;18.90;99.90;;;;;;5036470;28;20029;-67
2023/07/05 03:29:17;;;;;;;6.80;1.85;;;18.80;99.90;;;;;;5036396;28;20029;-67
2023/07/05 03:31:42;;;;;;;3.75;1.63;;;18.70;99.90;;;;;;5036832;28;20036;-67
2023/07/05 03:34:08;;;;;;;3.22;1.52;;;18.60;99.90;;;;;;5035960;28;20112;-67
2023/07/05 03:36:34;;;;;;;3.33;1.67;;;18.60;99.90;;;;;;5035815;28;20053;-67
2023/07/05 03:38:59;;;;;;;2.20;1.52;;;18.50;99.90;;;;;;5036317;28;20025;-67
2023/07/05 03:41:26;;;;;;;3.28;1.60;;;18.50;99.90;;;;;;5036989;28;20029;-67
2023/07/05 03:43:56;;;;;;;2.50;1.73;;;18.50;99.90;;;;;;5036615;28;20037;-67
2023/07/05 03:46:22;;;;;;;2.03;1.42;;;18.50;99.90;;;;;;5036603;28;20029;-67
2023/07/05 03:48:47;;;;;;;2.92;1.95;;;18.50;99.90;;;;;;5035910;28;20022;-67
2023/07/05 03:51:16;;;;;;;3.78;2.00;;;18.60;99.90;;;;;;5035750;28;20030;-67
2023/07/05 03:53:42;;;;;;;4.53;2.10;;;18.60;99.90;;;;;;5036025;28;20026;-66
2023/07/05 03:56:10;;;;;;;5.75;2.28;;;18.60;99.90;;;;;;5039928;28;20036;-67
2023/07/05 03:58:37;;;;;;;6.28;2.28;;;18.60;99.90;;;;;;5039801;28;20032;-67
2023/07/05 04:01:17;;;;;;;8.20;2.50;;;18.60;99.90;;;;;;5039861;28;20025;-67
2023/07/05 04:03:44;;;;;;;4.53;2.30;;;18.50;99.90;;;;;;5039767;28;20117;-66
2023/07/05 04:06:11;;;;;;;5.10;2.28;;;18.50;99.90;;;;;;5039730;28;20037;-67
2023/07/05 04:08:37;;;;;;;3.33;2.45;;;18.50;99.90;;;;;;5040540;28;20037;-67
2023/07/05 04:11:02;;;;;;;4.75;2.60;;;18.40;99.90;;;;;;5040287;28;20025;-67
2023/07/05 04:13:28;;;;;;;3.90;2.65;;;18.40;99.90;;;;;;5040365;28;20032;-66
2023/07/05 04:16:05;;;;;;;5.82;2.80;;;18.40;99.90;;;;;;5040376;28;20099;-67
2023/07/05 04:18:32;;;;;;;5.43;2.90;;;18.40;99.90;;;;;;5039599;28;20026;-67
2023/07/05 04:20:58;;;;;;;4.95;2.60;;;18.40;99.90;;;;;;5039497;28;20029;-67
2023/07/05 04:23:24;;;;;;;3.20;2.22;;;18.50;99.90;;;;;;5039306;28;20029;-67
2023/07/05 04:25:58;;;;;;;4.82;2.63;;;18.60;99.90;;;;;;5040457;28;20028;-67
2023/07/05 04:28:23;;;;;;;4.43;2.42;;;18.40;99.90;;;;;;5039325;28;20090;-67
2023/07/05 04:30:50;;;;;;;4.57;2.13;;;18.50;99.90;;;;;;5039523;28;20098;-67
2023/07/05 04:33:15;;;;;;;2.80;2.22;;;18.50;99.90;;;;;;5040087;28;20021;-66
2023/07/05 04:35:49;;;;;;;10.48;2.67;;;18.50;99.90;;;;;;5039463;28;20026;-67
2023/07/05 04:38:15;;;;;;;5.40;2.55;;;18.40;99.90;;;;;;5039164;28;20025;-67
2023/07/05 04:40:41;;;;;;;7.70;2.80;;;18.30;99.90;;;;;;5039836;28;20149;-66
2023/07/05 04:43:07;;;;;;;6.82;3.15;;;18.40;99.90;;;;;;5039347;28;20029;-67
2023/07/05 04:45:33;;;;;;;8.02;2.83;;;18.50;99.90;;;;;;5063161;22;20037;-71
2023/07/05 04:47:58;;;;;;;5.53;2.75;;;18.60;99.90;;;;;;5039090;28;20013;-71
2023/07/05 04:50:24;;;;;;;6.25;2.88;;;18.70;99.90;;;;;;5038670;28;20025;-72
2023/07/05 04:52:50;;;;;;;3.05;2.70;;;18.70;99.90;;;;;;5039794;28;20021;-72
2023/07/05 04:55:15;;;;;;;4.90;3.22;;;18.70;99.90;;;;;;5038726;28;20021;-72
2023/07/05 04:57:43;;;;;;;4.78;2.53;;;18.70;99.90;;;;;;5038618;28;20021;-72
2023/07/05 05:00:11;;;;;;;4.47;2.80;;;18.70;99.90;;;;;;5038794;28;20021;-72
2023/07/05 05:02:37;;;;;;;3.75;2.55;;;18.70;99.90;;;;;;5038556;28;20037;-72
2023/07/05 05:05:04;;;;;;;5.07;2.72;;;18.70;99.90;;;;;;5038287;28;20026;-72
2023/07/05 05:07:29;;;;;;;3.85;2.55;;;18.90;99.90;;;;;;5037559;28;20076;-71
2023/07/05 05:09:56;;;;;;;4.13;2.65;;;18.90;99.90;;;;;;5038121;28;20079;-71
2023/07/05 05:12:22;;;;;;;3.65;2.70;;;18.90;99.90;;;;;;5038519;28;20021;-71
2023/07/05 05:14:47;;;;;;;3.13;2.33;;;18.80;99.90;;;;;;5038641;28;20017;-72
2023/07/05 05:17:13;;;;;;;2.13;1.38;;;18.90;99.90;;;;;;5038738;28;20021;-72
2023/07/05 05:19:38;;;;;;;3.33;1.55;;;19.00;99.90;;;;;;5038388;28;20027;-71
2023/07/05 05:22:04;;;;;;;4.53;1.73;;;19.00;99.90;;;;;;5039227;28;20068;-71
2023/07/05 05:24:29;;;;;;;2.90;1.10;;;19.10;99.90;;;;;;5038404;28;20029;-71
2023/07/05 05:26:55;;;;;;;3.30;1.60;;;19.20;99.90;;;;;;5038104;28;20036;-71
2023/07/05 05:29:20;;;;;;;2.00;1.20;;;19.20;99.90;;;;;;5038389;28;20025;-71
2023/07/05 05:31:48;;;;;;;3.75;1.70;;;19.20;99.90;;;;;;5038434;28;20021;-71
2023/07/05 05:34:13;;;;;;;1.25;1.00;;;19.20;99.90;;;;;;5038136;28;20032;-71
2023/07/05 05:36:39;;;;;;;2.22;1.38;;;19.20;99.90;;;;;;5039459;28;20021;-72
2023/07/05 05:39:06;;;;;;;1.80;1.15;;;19.20;99.90;;;;;;5038187;28;20026;-71
2023/07/05 05:41:31;;;;;;;2.33;1.58;;;19.20;99.90;;;;;;5037924;28;20029;-71
2023/07/05 05:43:57;;;;;;;2.72;1.65;;;19.20;99.90;;;;;;5038188;28;20030;-71
2023/07/05 05:46:22;;;;;;;2.88;1.27;;;19.20;99.90;;;;;;5038178;28;20033;-71
2023/07/05 05:48:48;;;;;;;2.50;1.35;;;19.20;99.90;;;;;;5038279;28;20034;-71
2023/07/05 05:51:14;;;;;;;2.63;1.50;;;19.20;99.90;;;;;;5038764;28;20037;-71
2023/07/05 05:53:39;;;;;;;2.13;1.42;;;19.20;99.90;;;;;;5038089;28;20025;-72
2023/07/05 05:56:05;;;;;;;2.40;1.30;;;19.10;99.90;;;;;;5037728;28;20021;-71
2023/07/05 05:58:31;;;;;;;2.15;1.40;;;19.10;99.90;;;;;;5037798;28;20018;-71
2023/07/05 06:01:01;;;;;;;3.08;1.58;;;19.10;99.90;;;;;;5037442;28;20075;-71
2023/07/05 06:03:26;;;;;;;5.20;1.67;;;19.10;99.90;;;;;;5038277;28;20055;-71
2023/07/05 06:05:54;;;;;;;4.72;1.30;;;19.20;99.90;;;;;;5038120;28;20033;-71
2023/07/05 06:08:19;;;;;;;7.00;1.70;;;19.20;99.90;;;;;;5037712;28;20030;-71
2023/07/05 06:10:46;;;;;;;2.35;1.45;;;19.20;99.90;;;;;;5037694;28;20159;-71
2023/07/05 06:13:12;;;;;;;4.45;1.55;;;19.30;99.90;;;;;;5037503;28;20045;-71
2023/07/05 06:15:38;;;;;;;3.25;1.70;;;19.20;99.90;;;;;;5037510;28;20021;-71
2023/07/05 06:18:03;;;;;;;5.03;1.35;;;19.10;99.90;;;;;;5037607;28;20116;-71
2023/07/05 06:20:33;;;;;;;2.88;1.55;;;19.10;99.90;;;;;;5037440;28;20030;-71
2023/07/05 06:23:03;;;;;;;2.22;1.38;;;19.10;99.90;;;;;;5038147;28;20147;-71
2023/07/05 06:25:29;;;;;;;4.68;1.55;;;19.00;99.90;;;;;;5037504;28;20035;-71
2023/07/05 06:27:55;;;;;;;2.45;1.52;;;19.10;99.90;;;;;;5037304;28;20079;-71
2023/07/05 06:30:20;;;;;;;2.60;1.77;;;19.00;99.90;;;;;;5036963;28;20025;-71
2023/07/05 06:32:46;;;;;;;3.58;2.10;;;19.00;99.90;;;;;;5037826;28;20040;-71
2023/07/05 06:35:11;;;;;;;5.38;1.92;;;19.00;99.90;;;;;;5037329;28;20032;-71
2023/07/05 06:37:37;;;;;;;3.63;1.77;;;18.90;99.90;;;;;;5037163;28;20026;-71
2023/07/05 06:40:03;;;;;;;7.47;2.30;;;18.80;99.90;;;;;;5037481;28;20034;-71
2023/07/05 06:42:28;;;;;;;3.42;1.80;;;18.70;99.90;;;;;;5037063;28;20167;-71
2023/07/05 06:44:54;;;;;;;2.85;1.67;;;18.60;99.90;;;;;;5036754;28;20073;-71
2023/07/05 06:47:19;;;;;;;3.55;1.92;;;18.60;99.90;;;;;;5036569;28;20022;-71
2023/07/05 06:49:45;;;;;;;2.88;1.77;;;18.70;99.90;;;;;;5037402;28;20021;-71
2023/07/05 06:52:10;;;;;;;6.25;2.65;;;18.50;99.90;;;;;;5036812;28;20018;-71
2023/07/05 06:54:36;;;;;;;3.25;2.15;;;18.50;99.90;;;;;;5036559;28;20028;-71
2023/07/05 06:57:01;;;;;;;6.22;2.50;;;18.40;99.90;;;;;;5037000;28;20060;-71
2023/07/05 06:59:27;;;;;;;3.78;1.77;;;18.20;99.90;;;;;;5037456;28;20021;-71
2023/07/05 07:01:53;;;;;;;7.38;2.45;;;18.10;99.90;;;;;;5036708;28;20116;-71
2023/07/05 07:04:18;;;;;;;6.10;2.10;;;17.90;99.90;;;;;;5036632;28;20022;-71
2023/07/05 07:06:44;;;;;;;6.53;2.22;;;17.90;99.90;;;;;;5036295;28;20048;-71
2023/07/05 07:09:12;;;;;;;4.13;2.38;;;18.00;99.90;;;;;;5036448;28;20026;-71
2023/07/05 07:11:38;;;;;;;6.78;2.10;;;18.00;99.90;;;;;;5036417;28;20061;-71
2023/07/05 07:14:03;;;;;;;8.45;2.63;;;18.20;99.90;;;;;;5036996;28;20089;-71
2023/07/05 07:16:29;;;;;;;6.20;2.10;;;18.10;99.90;;;;;;5036416;28;20056;-71
2023/07/05 07:18:55;;;;;;;4.53;1.95;;;18.00;99.90;;;;;;5036772;28;20025;-71
2023/07/05 07:21:21;;;;;;;3.47;1.50;;;18.10;99.90;;;;;;5036155;28;20025;-71
2023/07/05 07:23:48;;;;;;;5.03;2.17;;;18.20;99.90;;;;;;5036255;28;20102;-71
2023/07/05 07:26:20;;;;;;;4.07;2.20;;;18.20;99.90;;;;;;5035958;28;20033;-71
2023/07/05 07:28:47;;;;;;;3.47;1.58;;;18.20;99.90;;;;;;5035936;28;20022;-71
2023/07/05 07:31:20;;;;;;;3.38;2.03;;;18.10;99.90;;;;;;5036116;28;20056;-71
2023/07/05 07:33:46;;;;;;;4.15;1.88;;;18.10;99.90;;;;;;5036123;28;20052;-71
2023/07/05 07:36:15;;;;;;;4.90;1.83;;;18.20;99.90;;;;;;5036133;28;20025;-71
2023/07/05 07:38:41;;;;;;;5.18;1.70;;;18.40;99.90;;;;;;5036229;28;20029;-71
2023/07/05 07:41:19;;;;;;;3.63;1.88;;;18.60;99.90;;;;;;5036130;28;20030;-71
2023/07/05 07:43:46;;;;;;;7.53;2.00;;;18.50;99.90;;;;;;5036595;28;20021;-71
2023/07/05 07:46:14;;;;;;;5.05;2.10;;;18.50;99.90;;;;;;5036225;28;20076;-71
2023/07/05 07:48:42;;;;;;;4.32;1.65;;;18.50;99.90;;;;;;5035943;28;20033;-71
2023/07/05 07:51:09;;;;;;;3.38;1.70;;;18.50;99.90;;;;;;5036128;28;20021;-71
2023/07/05 07:53:35;;;;;;;6.72;1.90;;;18.70;99.90;;;;;;5036141;28;20089;-71
2023/07/05 07:56:08;;;;;;;3.00;1.40;;;18.90;99.90;;;;;;5036215;28;20049;-71
2023/07/05 07:58:33;;;;;;;12.95;2.20;;;19.00;99.90;;;;;;5036567;28;20025;-71
2023/07/05 08:01:18;;;;;;;5.18;1.70;;;19.10;99.90;;;;;;5036194;28;20030;-72
2023/07/05 08:03:45;;;;;;;3.47;1.63;;;19.00;99.90;;;;;;5036215;28;20064;-71
2023/07/05 08:06:11;;;;;;;2.85;1.50;;;19.10;99.90;;;;;;5035698;28;20128;-70
2023/07/05 08:08:39;;;;;;;2.75;1.58;;;19.00;99.90;;;;;;5036428;28;20151;-71
2023/07/05 08:11:06;;;;;;;3.80;2.03;;;18.60;99.90;;;;;;5035483;28;20097;-71
2023/07/05 08:13:31;;;;;;;2.90;1.70;;;18.60;99.90;;;;;;5035777;28;20032;-71
2023/07/05 08:15:58;;;;;;;4.85;1.67;;;18.70;99.90;;;;;;5035647;28;20025;-71
2023/07/05 08:18:24;;;;;;;4.95;1.80;;;18.70;99.90;;;;;;5035642;28;20026;-71
2023/07/05 08:20:50;;;;;;;2.60;1.45;;;18.70;99.90;;;;;;5036418;28;20029;-70
2023/07/05 08:23:15;;;;;;;2.78;1.63;;;18.50;99.90;;;;;;5036239;28;20052;-71
2023/07/05 08:25:42;;;;;;;2.90;1.60;;;18.40;99.90;;;;;;5035781;28;20128;-71
2023/07/05 08:28:13;;;;;;;5.25;1.60;;;18.30;99.90;;;;;;5035480;28;20036;-71
2023/07/05 08:30:39;;;;;;;2.20;1.23;;;18.30;99.90;;;;;;5036214;28;20030;-71
2023/07/05 08:33:06;;;;;;;6.55;1.77;;;18.30;99.90;;;;;;5035433;28;20045;-71
2023/07/05 08:35:32;;;;;;;8.57;1.80;;;18.40;99.90;;;;;;5036135;28;20049;-71
2023/07/05 08:37:59;;;;;;;2.30;1.30;;;18.50;99.90;;;;;;5035413;28;20017;-70
2023/07/05 08:40:36;;;;;;;2.72;1.55;;;18.70;99.90;;;;;;5036348;28;20025;-71
2023/07/05 08:43:09;;;;;;;3.97;1.45;;;18.70;99.90;;;;;;5039085;28;20025;-70
2023/07/05 08:45:42;;;;;;;4.10;1.33;;;18.80;99.90;;;;;;5038934;28;20038;-70
2023/07/05 08:48:12;;;;;;;3.38;1.25;;;18.80;99.90;;;;;;5039982;28;20028;-70
2023/07/05 08:50:46;;;;;;;3.53;1.42;;;18.80;99.90;;;;;;5038820;28;20048;-70
2023/07/05 08:53:15;;;;;;;3.45;1.20;;;18.70;99.90;;;;;;5039452;28;20048;-70
2023/07/05 08:55:52;;;;;;;3.17;1.50;;;18.80;99.90;;;;;;5038760;28;20025;-70
2023/07/05 08:58:26;;;;;;;4.38;1.27;;;18.70;99.90;;;;;;5039862;28;20017;-70
2023/07/05 09:01:03;;;;;;;1.90;1.08;;;18.50;99.90;;;;;;5038653;28;20048;-70
2023/07/05 09:03:29;;;;;;;5.45;1.40;;;18.50;99.90;;;;;;5039190;28;20026;-70
2023/07/05 09:06:20;;;;;;;2.22;1.30;;;18.50;99.90;;;;;;5038532;28;20029;-70
2023/07/05 09:08:55;;;;;;;2.20;1.05;;;18.60;99.90;;;;;;5038668;28;20053;-70
2023/07/05 09:12:05;;;;;;;3.33;1.05;;;18.70;99.90;;;;;;5039244;28;20025;-70
2023/07/05 09:14:52;;;;;;;2.10;1.02;;;18.80;99.90;;;;;;5039503;28;20025;-70
2023/07/05 09:17:29;;;;;;;3.88;1.50;;;18.80;99.90;;;;;;5039521;28;20024;-70
2023/07/05 09:20:20;;;;;;;5.68;1.02;;;18.90;99.90;;;;;;5039505;28;20029;-71
2023/07/05 09:22:47;;;;;;;2.90;1.43;;;18.90;99.90;;;;;;5037862;28;20037;-70
2023/07/05 09:25:15;;;;;;;1.83;0.95;;;18.70;99.90;;;;;;5038095;28;20036;-70
2023/07/05 09:27:46;;;;;;;1.80;1.10;;;18.70;99.90;;;;;;5038212;28;20036;-70
2023/07/05 09:30:14;;;;;;;5.17;1.20;;;18.70;99.90;;;;;;5038882;28;20033;-70
2023/07/05 09:32:42;;;;;;;3.95;1.38;;;18.60;99.90;;;;;;5038004;28;20273;-70
2023/07/05 09:35:16;;;;;;;1.98;0.80;;;18.60;99.90;;;;;;5038078;28;20028;-70
2023/07/05 09:37:50;;;;;;;4.25;1.23;;;18.50;99.90;;;;;;5038721;28;20014;-70
2023/07/05 09:40:19;;;;;;;3.42;1.23;;;18.50;99.90;;;;;;5038100;28;20049;-70
2023/07/05 09:43:11;;;;;;;1.80;1.00;;;18.40;99.90;;;;;;5038407;28;20040;-70
2023/07/05 09:45:37;;;;;;;2.08;0.93;;;18.40;99.90;;;;;;5038503;28;20034;-70
2023/07/05 09:48:05;;;;;;;3.28;0.93;;;18.50;99.90;;;;;;5037742;28;20029;-70
2023/07/05 09:50:32;;;;;;;5.10;1.23;;;18.50;99.90;;;;;;5037557;28;20032;-70
2023/07/05 09:53:29;;;;;;;2.10;1.00;;;18.70;99.90;;;;;;5037252;28;20028;-70
2023/07/05 09:56:27;;;;;;;1.65;0.95;;;18.90;99.90;;;;;;5038549;28;20071;-70
2023/07/05 09:59:05;;;;;;;3.25;1.02;;;18.90;99.90;;;;;;5013555;28;20036;-70
2023/07/05 10:01:31;;;;;;;2.60;1.10;;;18.90;99.90;;;;;;5037945;28;20136;-70
2023/07/05 10:04:02;;;;;;;2.72;1.20;;;18.80;99.90;;;;;;5037406;28;20033;-70
2023/07/05 10:06:28;;;;;;;1.33;1.02;;;18.70;99.90;;;;;;5037444;28;20029;-70
2023/07/05 10:08:56;;;;;;;2.22;1.00;;;18.80;99.90;;;;;;5037346;28;20075;-70
2023/07/05 10:11:33;;;;;;;2.15;1.27;;;18.90;99.90;;;;;;5038251;28;20026;-71
2023/07/05 10:14:10;;;;;;;1.58;0.85;;;18.90;99.90;;;;;;5037336;28;20025;-71
2023/07/05 10:16:56;;;;;;;2.92;1.30;;;19.00;99.90;;;;;;5038159;28;20018;-70
2023/07/05 10:19:38;;;;;;;1.77;1.20;;;19.00;99.90;;;;;;5037205;28;20021;-70
2023/07/05 10:22:12;;;;;;;1.98;1.05;;;19.00;99.90;;;;;;5038505;28;20032;-70
2023/07/05 10:24:46;;;;;;;2.28;1.02;;;19.00;99.90;;;;;;5037973;28;20030;-70
2023/07/05 10:27:31;;;;;;;2.03;1.30;;;19.20;99.90;;;;;;5038203;28;20036;-70
2023/07/05 10:30:01;;;;;;;2.55;1.10;;;19.30;99.90;;;;;;5023302;28;20087;-71
2023/07/05 10:32:28;;;;;;;2.58;1.08;;;19.50;99.90;;;;;;5036908;28;20018;-70
2023/07/05 10:34:55;;;;;;;1.42;0.88;;;19.60;99.90;;;;;;5036822;28;20054;-71
2023/07/05 10:37:35;;;;;;;4.10;1.05;;;19.90;99.90;;;;;;5037199;28;20018;-71
2023/07/05 10:40:04;;;;;;;1.92;1.00;;;20.30;99.90;;;;;;5036847;28;20064;-71
2023/07/05 10:42:30;;;;;;;2.28;1.02;;;20.60;99.90;;;;;;5037574;28;20032;-70
2023/07/05 10:44:56;;;;;;;5.05;1.77;;;20.30;99.90;;;;;;5036512;28;20037;-69
2023/07/05 10:47:23;;;;;;;2.42;1.17;;;20.20;99.90;;;;;;5037234;28;20029;-70
2023/07/05 10:49:52;;;;;;;5.18;3.03;;;20.30;99.90;;;;;;5037133;28;20029;-70
2023/07/05 10:52:19;;;;;;;2.00;1.50;;;20.70;99.90;;;;;;5037327;28;20025;-70
2023/07/05 10:55:13;;;;;;;1.27;0.93;;;21.20;99.90;;;;;;5036492;28;20082;-70
2023/07/05 10:57:43;;;;;;;1.63;0.75;;;21.60;99.90;;;;;;5036655;28;20068;-70
2023/07/05 11:00:38;;;;;;;1.17;0.80;;;21.60;99.90;;;;;;5036660;28;20060;-70
2023/07/05 11:03:14;;;;;;;3.47;0.95;;;21.20;99.90;;;;;;5037265;28;20036;-70
2023/07/05 11:05:47;;;;;;;2.80;0.70;;;21.00;99.90;;;;;;5036717;28;20029;-70
2023/07/05 11:08:42;;;;;;;1.55;0.80;;;20.70;99.90;;;;;;5036323;28;20029;-70
2023/07/05 11:11:18;;;;;;;1.85;0.80;;;20.60;99.90;;;;;;5037459;28;20078;-70
2023/07/05 11:13:46;;;;;;;1.52;0.93;;;20.90;99.90;;;;;;5037343;28;20025;-70
2023/07/05 11:16:35;;;;;;;1.88;0.98;;;21.40;99.90;;;;;;5036978;28;20075;-70
2023/07/05 11:19:03;;;;;;;1.52;0.90;;;21.50;99.90;;;;;;5036187;28;20033;-70
2023/07/05 11:21:50;;;;;;;5.18;1.23;;;22.10;99.90;;;;;;5035987;28;20022;-70
2023/07/05 11:24:30;;;;;;;0.80;0.70;;;22.70;99.90;;;;;;5036686;28;20037;-70
2023/07/05 11:26:57;;;;;;;2.38;1.10;;;23.10;99.90;;;;;;5036648;28;20021;-70
2023/07/05 11:29:28;;;;;;;1.77;0.88;;;23.50;99.70;;;;;;5036048;28;20029;-70
2023/07/05 11:31:53;;;;;;;;;;;23.60;97.70;;;;;;5037144;28;20030;-70
2023/07/05 11:34:23;;;;;;;5.68;1.13;;;23.70;97.50;;;;;;5036767;28;19912;-70
2023/07/05 11:36:54;;;;;;;1.83;1.10;;;23.90;96.90;;;;;;5035951;28;20175;-70
2023/07/05 11:39:32;;;;;;;3.78;1.55;;;24.00;95.00;;;;;;5035809;28;20070;-70
2023/07/05 11:42:19;;;;;;;2.13;1.58;;;23.80;94.50;;;;;;5035847;28;20037;-70
2023/07/05 11:45:03;;;;;;;2.45;1.10;;;23.80;94.10;;;;;;5035512;28;20029;-70
2023/07/05 11:47:32;;;;;;;3.25;1.05;;;23.70;92.60;;;;;;5036324;28;20022;-73
2023/07/05 11:50:01;;;;;;;4.30;0.95;;;24.00;91.80;;;;;;5036506;28;20029;-73
2023/07/05 11:52:31;;;;;;;1.52;0.90;;;24.30;91.50;;;;;;5035921;28;20030;-74
2023/07/05 11:55:11;;;;;;;2.90;1.00;;;24.00;92.10;;;;;;5035684;28;20143;-74
2023/07/05 11:57:48;;;;;;;3.78;1.40;;;23.30;93.20;;;;;;5036566;28;20026;-73
2023/07/05 12:00:18;;;;;;;4.97;1.20;;;22.70;93.90;;;;;;5035821;28;20061;-73
2023/07/05 12:03:06;;;;;;;3.13;1.55;;;22.60;93.40;;;;;;5036039;28;20040;-73
2023/07/05 12:05:33;;;;;;;6.70;1.20;;;22.20;93.80;;;;;;5035645;28;20075;-72
2023/07/05 12:08:11;;;;;;;2.85;1.20;;;22.50;93.20;;;;;;5036826;28;20022;-72
2023/07/05 12:10:37;;;;;;;4.85;1.30;;;22.80;92.10;;;;;;5035707;28;20032;-74
2023/07/05 12:13:06;;;;;;;3.75;1.02;;;22.60;92.20;;;;;;5035913;28;20101;-73
2023/07/05 12:15:35;;;;;;;2.70;1.20;;;22.30;92.70;;;;;;5037554;28;20022;-73
2023/07/05 12:18:02;;;;;;;3.42;1.33;;;22.20;93.40;;;;;;5040823;28;20056;-73
2023/07/05 12:20:38;;;;;;;2.15;1.30;;;22.10;93.10;;;;;;5039725;28;20049;-72
2023/07/05 12:23:08;;;;;;;6.25;2.05;;;21.80;93.80;;;;;;5039366;28;20061;-72
2023/07/05 12:25:34;;;;;;;2.10;1.42;;;21.90;94.20;;;;;;5040086;28;20029;-72
2023/07/05 12:28:02;;;;;;;3.10;1.27;;;22.10;93.70;;;;;;5040108;28;20025;-73
2023/07/05 12:30:29;;;;;;;3.55;1.25;;;22.30;93.10;;;;;;5039329;28;20032;-73
2023/07/05 12:32:56;;;;;;;2.25;1.00;;;22.10;93.80;;;;;;5039531;28;20025;-74
2023/07/05 12:35:25;;;;;;;3.45;1.27;;;21.90;93.30;;;;;;5039462;28;20108;-72
2023/07/05 12:37:53;;;;;;;3.22;1.25;;;21.70;93.70;;;;;;5039765;28;20021;-73
2023/07/05 12:40:21;;;;;;;2.67;1.42;;;21.40;93.60;;;;;;5040093;28;20025;-73
2023/07/05 12:42:56;;;;;;;5.63;1.25;;;21.40;94.10;;;;;;5039572;28;20033;-72
2023/07/05 12:45:28;;;;;;;3.63;1.25;;;21.40;93.90;;;;;;5039231;28;20084;-73
2023/07/05 12:47:54;;;;;;;2.45;0.90;;;21.30;93.80;;;;;;5039051;28;20030;-73
2023/07/05 12:50:22;;;;;;;3.03;1.13;;;21.20;94.10;;;;;;5039518;28;20022;-73
2023/07/05 12:52:59;;;;;;;3.88;1.65;;;21.10;94.50;;;;;;5040402;28;20021;-73
2023/07/05 12:55:29;;;;;;;2.30;1.10;;;21.00;94.00;;;;;;5038960;28;20099;-73
2023/07/05 12:57:56;;;;;;;1.87;1.17;;;20.90;94.10;;;;;;5038823;28;20022;-73
2023/07/05 13:00:22;;;;;;;6.40;1.50;;;21.00;94.30;;;;;;5039769;28;20267;-73
2023/07/05 13:02:50;;;;;;;4.32;1.30;;;21.20;94.80;;;;;;5038925;28;20131;-73